createdAt,value
2022-12-12T00:00:33.548Z,87.77
2022-12-12T00:05:32.710Z,88.51
2022-12-12T00:10:30.530Z,88.49
2022-12-12T00:15:28.518Z,87.80
2022-12-12T00:20:26.369Z,87.20
2022-12-12T00:25:25.564Z,87.53
2022-12-12T00:30:23.805Z,87.94
2022-12-12T00:35:21.611Z,87.79
2022-12-12T00:40:19.424Z,88.29
2022-12-12T00:45:18.615Z,87.72
2022-12-12T00:50:16.438Z,87.83
2022-12-12T00:55:14.834Z,87.13
2022-12-12T01:00:14.545Z,87.81
2022-12-12T01:05:14.436Z,88.15
2022-12-12T01:10:12.769Z,88.26
2022-12-12T01:15:11.511Z,87.10
2022-12-12T01:20:16.878Z,87.90
2022-12-12T01:25:17.415Z,86.75
2022-12-12T01:30:16.634Z,87.01
2022-12-12T01:35:15.665Z,86.56
2022-12-12T01:40:15.521Z,85.83
2022-12-12T01:45:28.158Z,86.70
2022-12-12T01:50:27.367Z,86.98
2022-12-12T01:55:26.254Z,87.68
2022-12-12T02:00:24.153Z,87.51
2022-12-12T02:05:25.140Z,88.13
2022-12-12T02:10:24.433Z,88.50
2022-12-12T02:15:22.271Z,88.32
2022-12-12T02:20:38.013Z,87.96
2022-12-12T02:25:48.606Z,86.29
2022-12-12T02:30:49.819Z,86.78
2022-12-12T02:35:55.119Z,85.24
2022-12-12T02:40:57.008Z,84.17
2022-12-12T02:45:57.559Z,83.69
2022-12-12T02:50:58.537Z,82.58
2022-12-12T02:56:02.797Z,82.32
2022-12-12T03:01:11.416Z,82.35
2022-12-12T03:06:40.980Z,82.95
2022-12-12T03:11:44.740Z,83.18
2022-12-12T03:16:45.985Z,84.10
2022-12-12T03:21:49.816Z,84.36
2022-12-12T03:26:51.711Z,84.27
2022-12-12T03:31:54.064Z,85.04
2022-12-12T03:36:55.572Z,84.66
2022-12-12T03:41:56.089Z,85.11
2022-12-12T03:46:56.195Z,85.02
2022-12-12T03:51:58.917Z,85.08
2022-12-12T03:56:58.744Z,85.00
2022-12-12T04:01:58.657Z,84.66
2022-12-12T04:07:00.587Z,84.41
2022-12-12T04:12:20.157Z,84.52
2022-12-12T04:17:23.306Z,84.15
2022-12-12T04:22:41.779Z,84.26
2022-12-12T04:27:42.672Z,82.49
2022-12-12T04:32:43.965Z,82.15
2022-12-12T04:37:45.048Z,82.02
2022-12-12T04:42:45.461Z,80.75
2022-12-12T04:47:45.802Z,80.33
2022-12-12T04:52:46.429Z,79.20
2022-12-12T04:57:46.421Z,79.29
2022-12-12T05:02:49.408Z,79.95
2022-12-12T05:07:51.805Z,81.67
2022-12-12T05:12:50.821Z,80.83
2022-12-12T05:17:50.169Z,81.98
2022-12-12T05:22:49.326Z,81.78
2022-12-12T05:27:47.148Z,80.99
2022-12-12T05:32:45.106Z,80.46
2022-12-12T05:37:48.215Z,80.10
2022-12-12T05:42:50.746Z,80.19
2022-12-12T05:47:48.692Z,80.74
2022-12-12T05:52:46.502Z,80.71
2022-12-12T05:57:54.405Z,80.64
2022-12-12T06:02:52.235Z,80.14
2022-12-12T06:07:51.357Z,79.64
2022-12-12T06:12:49.161Z,80.03
2022-12-12T06:17:48.431Z,77.05
2022-12-12T06:22:52.064Z,75.69
2022-12-12T06:27:51.503Z,74.36
2022-12-12T06:32:50.672Z,74.40
2022-12-12T06:37:48.990Z,73.33
2022-12-12T06:42:48.809Z,73.42
2022-12-12T06:47:46.834Z,71.44
2022-12-12T06:52:45.993Z,69.41
2022-12-12T06:57:43.779Z,70.20
2022-12-12T07:02:41.617Z,70.88
2022-12-12T07:07:39.427Z,67.85
2022-12-12T07:12:38.587Z,66.42
2022-12-12T07:17:36.356Z,64.62
2022-12-12T07:22:34.147Z,62.26
2022-12-12T07:27:31.983Z,59.57
2022-12-12T07:32:31.231Z,62.25
2022-12-12T07:37:29.025Z,62.85
2022-12-12T07:42:26.817Z,63.09
2022-12-12T07:47:24.771Z,60.89
2022-12-12T07:52:23.938Z,58.92
2022-12-12T07:57:21.830Z,60.47
2022-12-12T08:02:19.677Z,63.02
2022-12-12T08:07:17.554Z,64.03
2022-12-12T08:12:16.818Z,63.95
2022-12-12T08:17:14.653Z,65.29
2022-12-12T08:22:12.481Z,64.58
2022-12-12T08:27:15.350Z,63.57
2022-12-12T08:32:15.115Z,65.22
2022-12-12T08:37:12.915Z,64.89
2022-12-12T08:42:12.419Z,66.18
2022-12-12T08:47:10.724Z,66.48
2022-12-12T08:52:10.516Z,66.87
2022-12-12T08:57:08.380Z,61.68
2022-12-12T09:02:07.437Z,56.90
2022-12-12T09:07:08.701Z,53.17
2022-12-12T09:12:08.550Z,52.60
2022-12-12T09:17:06.341Z,51.73
2022-12-12T09:22:04.419Z,56.17
2022-12-12T09:27:02.209Z,55.99
2022-12-12T09:32:06.389Z,56.05
2022-12-12T09:37:04.198Z,54.79
2022-12-12T09:42:10.811Z,55.59
2022-12-12T09:47:14.769Z,54.80
2022-12-12T09:52:14.806Z,54.88
2022-12-12T09:57:20.989Z,53.59
2022-12-12T10:02:39.761Z,54.19
2022-12-12T10:07:42.742Z,51.79
2022-12-12T10:12:40.614Z,51.13
2022-12-12T10:17:41.475Z,51.91
2022-12-12T10:22:44.762Z,51.93
2022-12-12T10:27:42.561Z,52.32
2022-12-12T10:32:45.808Z,50.14
2022-12-12T10:37:50.413Z,50.29
2022-12-12T10:42:53.374Z,47.71
2022-12-12T10:47:51.580Z,49.61
2022-12-12T10:52:50.790Z,47.44
2022-12-12T10:57:48.576Z,46.42
2022-12-12T11:02:46.433Z,45.86
2022-12-12T11:07:45.853Z,46.09
2022-12-12T11:12:46.831Z,46.80
2022-12-12T11:17:45.723Z,47.92
2022-12-12T11:22:43.584Z,46.82
2022-12-12T11:27:42.562Z,48.67
2022-12-12T11:32:42.924Z,50.42
2022-12-12T11:37:48.273Z,49.66
2022-12-12T11:42:46.064Z,50.07
2022-12-12T11:47:45.882Z,52.38
2022-12-12T11:52:43.692Z,49.38
2022-12-12T11:57:56.609Z,51.68
2022-12-12T12:03:08.806Z,51.42
2022-12-12T12:08:12.318Z,49.86
2022-12-12T12:13:19.212Z,50.77
2022-12-12T12:18:26.682Z,55.82
2022-12-12T12:23:35.181Z,56.87
2022-12-12T12:29:03.837Z,55.32
2022-12-12T12:34:08.830Z,51.91
2022-12-12T12:39:12.228Z,49.11
2022-12-12T12:44:19.162Z,48.16
2022-12-12T12:49:20.897Z,48.04
2022-12-12T12:54:21.954Z,47.34
2022-12-12T12:59:22.412Z,48.06
2022-12-12T13:04:25.483Z,49.42
2022-12-12T13:09:28.663Z,49.20
2022-12-12T13:14:36.197Z,51.36
2022-12-12T13:19:38.880Z,53.58
2022-12-12T13:24:43.552Z,55.00
2022-12-12T13:29:45.267Z,56.24
2022-12-12T13:34:46.685Z,59.15
2022-12-12T13:39:44.951Z,58.65
2022-12-12T13:44:44.460Z,58.77
2022-12-12T13:49:47.120Z,58.37
2022-12-12T13:54:46.976Z,59.82
2022-12-12T14:00:03.609Z,61.11
2022-12-12T14:05:14.293Z,63.30
2022-12-12T14:10:20.122Z,64.64
2022-12-12T14:15:21.907Z,66.60
2022-12-12T14:20:27.432Z,66.00
2022-12-12T14:25:30.618Z,66.38
2022-12-12T14:30:34.871Z,67.66
2022-12-12T14:35:39.637Z,68.58
2022-12-12T14:40:40.148Z,68.52
2022-12-12T14:45:38.877Z,68.83
2022-12-12T14:50:38.601Z,67.89
2022-12-12T14:55:36.435Z,66.96
2022-12-12T15:00:34.399Z,66.42
2022-12-12T15:05:32.248Z,66.88
2022-12-12T15:10:33.245Z,67.98
2022-12-12T15:15:33.191Z,68.71
2022-12-12T15:20:32.178Z,69.87
2022-12-12T15:25:32.747Z,69.80
2022-12-12T15:30:33.000Z,69.47
2022-12-12T15:35:30.853Z,69.82
2022-12-12T15:40:29.948Z,70.07
2022-12-12T15:45:33.863Z,70.54
2022-12-12T15:50:51.221Z,70.88
2022-12-12T15:55:53.051Z,71.21
2022-12-12T16:00:53.002Z,70.67
2022-12-12T16:06:03.257Z,70.57
2022-12-12T16:11:01.952Z,71.03
2022-12-12T16:16:01.221Z,70.96
2022-12-12T16:20:59.259Z,70.92
2022-12-12T16:25:57.371Z,71.60
2022-12-12T16:30:56.823Z,72.32
2022-12-12T16:35:56.093Z,73.21
2022-12-12T16:40:55.209Z,72.90
2022-12-12T16:45:53.731Z,73.85
2022-12-12T16:50:52.192Z,74.68
2022-12-12T16:55:52.403Z,75.96
2022-12-12T17:00:52.751Z,72.48
2022-12-12T17:05:51.088Z,72.38
2022-12-12T17:10:49.782Z,72.75
2022-12-12T17:15:50.157Z,74.46
2022-12-12T17:20:48.539Z,75.56
2022-12-12T17:25:48.524Z,77.41
2022-12-12T17:30:46.694Z,78.51
2022-12-12T17:35:45.892Z,79.82
2022-12-12T17:40:44.381Z,81.90
2022-12-12T17:45:42.244Z,83.37
2022-12-12T17:50:41.924Z,83.63
2022-12-12T17:55:53.079Z,84.80
2022-12-12T18:00:53.921Z,84.84
2022-12-12T18:05:52.322Z,86.29
2022-12-12T18:10:51.497Z,86.46
2022-12-12T18:15:54.299Z,86.34
2022-12-12T18:20:52.376Z,87.73
2022-12-12T18:25:51.589Z,86.92
2022-12-12T18:30:49.992Z,89.10
2022-12-12T18:35:49.941Z,88.42
2022-12-12T18:40:47.761Z,88.88
2022-12-12T18:45:50.683Z,90.97
2022-12-12T18:50:48.584Z,90.35
2022-12-12T18:55:46.421Z,91.35
2022-12-12T19:00:44.216Z,92.79
2022-12-12T19:05:44.169Z,92.73
2022-12-12T19:10:42.145Z,94.13
2022-12-12T19:15:39.984Z,93.48
2022-12-12T19:20:37.966Z,92.63
2022-12-12T19:25:42.604Z,93.74
2022-12-12T19:30:41.351Z,93.87
2022-12-12T19:35:39.266Z,92.91
2022-12-12T19:40:38.422Z,94.32
2022-12-12T19:45:36.226Z,94.58
2022-12-12T19:50:36.281Z,94.09
2022-12-12T19:55:34.130Z,95.09
2022-12-12T20:00:33.312Z,94.26
2022-12-12T20:05:31.279Z,95.38
2022-12-12T20:10:29.078Z,95.35
2022-12-12T20:15:26.962Z,95.48
2022-12-12T20:20:26.124Z,95.22
2022-12-12T20:25:23.918Z,96.42
2022-12-12T20:30:21.834Z,95.77
2022-12-12T20:35:21.221Z,96.16
2022-12-12T20:40:20.546Z,95.26
2022-12-12T20:45:18.468Z,95.89
2022-12-12T20:50:16.712Z,94.94
2022-12-12T20:55:14.673Z,94.68
2022-12-12T21:00:14.762Z,94.07
2022-12-12T21:05:13.243Z,95.02
2022-12-12T21:10:11.241Z,95.35
2022-12-12T21:15:09.878Z,94.61
2022-12-12T21:20:09.958Z,95.11
2022-12-12T21:25:08.139Z,94.09
2022-12-12T21:30:06.467Z,94.14
2022-12-12T21:35:04.331Z,94.83
2022-12-12T21:40:03.593Z,94.63
2022-12-12T21:45:01.396Z,95.08
2022-12-12T21:49:59.176Z,93.77
2022-12-12T21:54:56.958Z,95.17
2022-12-12T21:59:56.283Z,94.50
2022-12-12T22:04:54.078Z,94.63
2022-12-12T22:10:09.532Z,93.67
2022-12-12T22:15:11.016Z,94.50
2022-12-12T22:20:09.559Z,95.73
2022-12-12T22:25:08.513Z,93.79
2022-12-12T22:30:06.944Z,95.44
2022-12-12T22:35:06.598Z,97.75
2022-12-12T22:40:04.679Z,97.11
2022-12-12T22:45:02.535Z,97.77
2022-12-12T22:50:00.349Z,98.06
2022-12-12T22:54:59.957Z,97.26
2022-12-12T22:59:57.785Z,98.42
2022-12-12T23:04:55.707Z,99.62
2022-12-12T23:09:53.689Z,99.02
2022-12-12T23:14:52.871Z,99.73
2022-12-12T23:19:50.684Z,99.70
2022-12-12T23:24:48.472Z,98.48
2022-12-12T23:29:46.278Z,96.66
2022-12-12T23:34:45.489Z,98.30
2022-12-12T23:39:43.372Z,97.61
2022-12-12T23:44:41.178Z,96.45
2022-12-12T23:49:38.978Z,97.21
2022-12-12T23:54:38.394Z,95.46
2022-12-12T23:59:36.180Z,95.19
